sensor_id;sensor_type;location;lat;lon;timestamp;P1;durP1;ratioP1;P2;durP2;ratioP2
51214;SDS011;63849;47.546;19.254;2023-11-21T00:00:13;48.63;;;35.30;;
51214;SDS011;63849;47.546;19.254;2023-11-21T00:02:40;48.92;;;33.75;;
51214;SDS011;63849;47.546;19.254;2023-11-21T00:05:10;49.08;;;33.22;;
51214;SDS011;63849;47.546;19.254;2023-11-21T00:07:39;46.33;;;32.60;;
51214;SDS011;63849;47.546;19.254;2023-11-21T00:10:05;46.08;;;31.85;;
51214;SDS011;63849;47.546;19.254;2023-11-21T00:12:33;41.35;;;31.05;;
51214;SDS011;63849;47.546;19.254;2023-11-21T00:14:59;48.00;;;35.72;;
51214;SDS011;63849;47.546;19.254;2023-11-21T00:17:26;66.22;;;46.90;;
51214;SDS011;63849;47.546;19.254;2023-11-21T00:19:52;52.47;;;38.33;;
51214;SDS011;63849;47.546;19.254;2023-11-21T00:22:18;49.30;;;34.67;;
51214;SDS011;63849;47.546;19.254;2023-11-21T00:24:44;44.72;;;32.63;;
51214;SDS011;63849;47.546;19.254;2023-11-21T00:27:11;48.30;;;35.42;;
51214;SDS011;63849;47.546;19.254;2023-11-21T00:29:37;46.97;;;36.72;;
51214;SDS011;63849;47.546;19.254;2023-11-21T00:32:04;53.97;;;45.67;;
51214;SDS011;63849;47.546;19.254;2023-11-21T00:34:30;79.82;;;67.93;;
51214;SDS011;63849;47.546;19.254;2023-11-21T00:36:57;84.18;;;71.75;;
51214;SDS011;63849;47.546;19.254;2023-11-21T00:39:23;80.07;;;67.18;;
51214;SDS011;63849;47.546;19.254;2023-11-21T00:41:49;78.50;;;66.10;;
51214;SDS011;63849;47.546;19.254;2023-11-21T00:44:16;73.45;;;65.35;;
51214;SDS011;63849;47.546;19.254;2023-11-21T00:46:41;77.45;;;66.65;;
51214;SDS011;63849;47.546;19.254;2023-11-21T00:49:07;72.38;;;60.83;;
51214;SDS011;63849;47.546;19.254;2023-11-21T00:51:33;73.72;;;59.72;;
51214;SDS011;63849;47.546;19.254;2023-11-21T00:53:59;68.63;;;56.35;;
51214;SDS011;63849;47.546;19.254;2023-11-21T00:56:26;66.65;;;54.60;;
51214;SDS011;63849;47.546;19.254;2023-11-21T00:58:52;65.35;;;53.72;;
51214;SDS011;63849;47.546;19.254;2023-11-21T01:01:19;60.33;;;50.92;;
51214;SDS011;63849;47.546;19.254;2023-11-21T01:03:48;60.85;;;51.28;;
51214;SDS011;63849;47.546;19.254;2023-11-21T01:06:14;60.58;;;51.22;;
51214;SDS011;63849;47.546;19.254;2023-11-21T01:08:40;58.72;;;50.25;;
51214;SDS011;63849;47.546;19.254;2023-11-21T01:11:06;59.70;;;48.53;;
51214;SDS011;63849;47.546;19.254;2023-11-21T01:13:37;57.92;;;49.03;;
51214;SDS011;63849;47.546;19.254;2023-11-21T01:16:07;55.42;;;48.28;;
51214;SDS011;63849;47.546;19.254;2023-11-21T01:18:33;52.55;;;46.28;;
51214;SDS011;63849;47.546;19.254;2023-11-21T01:21:00;53.17;;;43.80;;
51214;SDS011;63849;47.546;19.254;2023-11-21T01:23:26;52.33;;;43.88;;
51214;SDS011;63849;47.546;19.254;2023-11-21T01:25:52;54.83;;;42.88;;
51214;SDS011;63849;47.546;19.254;2023-11-21T01:28:18;51.88;;;42.95;;
51214;SDS011;63849;47.546;19.254;2023-11-21T01:30:44;51.72;;;42.13;;
51214;SDS011;63849;47.546;19.254;2023-11-21T01:33:11;46.80;;;39.13;;
51214;SDS011;63849;47.546;19.254;2023-11-21T01:35:37;52.03;;;43.63;;
51214;SDS011;63849;47.546;19.254;2023-11-21T01:38:02;55.90;;;44.03;;
51214;SDS011;63849;47.546;19.254;2023-11-21T01:40:29;55.22;;;44.55;;
51214;SDS011;63849;47.546;19.254;2023-11-21T01:42:55;65.03;;;49.45;;
51214;SDS011;63849;47.546;19.254;2023-11-21T01:45:22;68.85;;;51.25;;
51214;SDS011;63849;47.546;19.254;2023-11-21T01:47:50;62.13;;;47.53;;
51214;SDS011;63849;47.546;19.254;2023-11-21T01:50:16;63.33;;;47.63;;
51214;SDS011;63849;47.546;19.254;2023-11-21T01:52:47;63.55;;;47.72;;
51214;SDS011;63849;47.546;19.254;2023-11-21T01:55:14;65.95;;;46.65;;
51214;SDS011;63849;47.546;19.254;2023-11-21T01:57:45;58.15;;;44.58;;
51214;SDS011;63849;47.546;19.254;2023-11-21T02:00:11;52.70;;;37.50;;
51214;SDS011;63849;47.546;19.254;2023-11-21T02:02:51;49.17;;;37.58;;
51214;SDS011;63849;47.546;19.254;2023-11-21T02:05:17;52.53;;;37.30;;
51214;SDS011;63849;47.546;19.254;2023-11-21T02:07:44;44.35;;;32.00;;
51214;SDS011;63849;47.546;19.254;2023-11-21T02:10:12;43.38;;;29.73;;
51214;SDS011;63849;47.546;19.254;2023-11-21T02:12:42;39.05;;;29.75;;
51214;SDS011;63849;47.546;19.254;2023-11-21T02:15:10;43.13;;;30.33;;
51214;SDS011;63849;47.546;19.254;2023-11-21T02:17:45;36.20;;;28.15;;
51214;SDS011;63849;47.546;19.254;2023-11-21T02:20:17;36.83;;;26.73;;
51214;SDS011;63849;47.546;19.254;2023-11-21T02:22:55;34.38;;;25.25;;
51214;SDS011;63849;47.546;19.254;2023-11-21T02:25:25;36.95;;;25.90;;
51214;SDS011;63849;47.546;19.254;2023-11-21T02:27:52;32.05;;;25.05;;
51214;SDS011;63849;47.546;19.254;2023-11-21T02:30:20;33.55;;;24.75;;
51214;SDS011;63849;47.546;19.254;2023-11-21T02:32:47;34.17;;;24.08;;
51214;SDS011;63849;47.546;19.254;2023-11-21T02:35:13;30.08;;;24.00;;
51214;SDS011;63849;47.546;19.254;2023-11-21T02:37:41;33.25;;;24.52;;
51214;SDS011;63849;47.546;19.254;2023-11-21T02:40:10;36.78;;;27.08;;
51214;SDS011;63849;47.546;19.254;2023-11-21T02:42:37;37.97;;;27.30;;
51214;SDS011;63849;47.546;19.254;2023-11-21T02:45:05;37.47;;;26.70;;
51214;SDS011;63849;47.546;19.254;2023-11-21T02:47:32;33.58;;;26.83;;
51214;SDS011;63849;47.546;19.254;2023-11-21T02:49:58;36.00;;;25.75;;
51214;SDS011;63849;47.546;19.254;2023-11-21T02:52:24;35.13;;;26.33;;
51214;SDS011;63849;47.546;19.254;2023-11-21T02:54:50;32.35;;;24.83;;
51214;SDS011;63849;47.546;19.254;2023-11-21T02:57:16;33.50;;;26.35;;
51214;SDS011;63849;47.546;19.254;2023-11-21T02:59:42;31.15;;;24.17;;
51214;SDS011;63849;47.546;19.254;2023-11-21T03:02:08;32.42;;;24.98;;
51214;SDS011;63849;47.546;19.254;2023-11-21T03:04:34;28.85;;;23.05;;
51214;SDS011;63849;47.546;19.254;2023-11-21T03:07:00;28.23;;;22.30;;
51214;SDS011;63849;47.546;19.254;2023-11-21T03:09:26;31.70;;;23.20;;
51214;SDS011;63849;47.546;19.254;2023-11-21T03:11:52;28.77;;;21.77;;
51214;SDS011;63849;47.546;19.254;2023-11-21T03:14:18;28.00;;;20.63;;
51214;SDS011;63849;47.546;19.254;2023-11-21T03:16:45;29.88;;;21.85;;
51214;SDS011;63849;47.546;19.254;2023-11-21T03:19:11;27.90;;;21.73;;
51214;SDS011;63849;47.546;19.254;2023-11-21T03:21:36;26.30;;;21.17;;
51214;SDS011;63849;47.546;19.254;2023-11-21T03:24:03;28.05;;;20.85;;
51214;SDS011;63849;47.546;19.254;2023-11-21T03:26:29;28.67;;;22.40;;
51214;SDS011;63849;47.546;19.254;2023-11-21T03:28:55;27.65;;;21.80;;
51214;SDS011;63849;47.546;19.254;2023-11-21T03:31:21;26.33;;;21.25;;
51214;SDS011;63849;47.546;19.254;2023-11-21T03:33:46;27.25;;;21.08;;
51214;SDS011;63849;47.546;19.254;2023-11-21T03:36:12;28.55;;;22.38;;
51214;SDS011;63849;47.546;19.254;2023-11-21T03:38:40;30.33;;;21.98;;
51214;SDS011;63849;47.546;19.254;2023-11-21T03:41:06;32.47;;;22.52;;
51214;SDS011;63849;47.546;19.254;2023-11-21T03:43:35;30.48;;;21.83;;
51214;SDS011;63849;47.546;19.254;2023-11-21T03:46:01;25.98;;;21.52;;
51214;SDS011;63849;47.546;19.254;2023-11-21T03:48:27;33.47;;;25.73;;
51214;SDS011;63849;47.546;19.254;2023-11-21T03:50:53;30.77;;;23.85;;
51214;SDS011;63849;47.546;19.254;2023-11-21T03:53:19;31.40;;;23.63;;
51214;SDS011;63849;47.546;19.254;2023-11-21T03:55:44;35.05;;;24.73;;
51214;SDS011;63849;47.546;19.254;2023-11-21T03:58:10;37.00;;;29.02;;
51214;SDS011;63849;47.546;19.254;2023-11-21T04:00:36;43.42;;;29.42;;
51214;SDS011;63849;47.546;19.254;2023-11-21T04:03:02;37.80;;;27.88;;
51214;SDS011;63849;47.546;19.254;2023-11-21T04:05:28;41.10;;;31.38;;
51214;SDS011;63849;47.546;19.254;2023-11-21T04:07:54;42.10;;;30.05;;
51214;SDS011;63849;47.546;19.254;2023-11-21T04:10:19;35.35;;;28.27;;
51214;SDS011;63849;47.546;19.254;2023-11-21T04:12:45;38.45;;;27.80;;
51214;SDS011;63849;47.546;19.254;2023-11-21T04:15:11;32.72;;;27.77;;
51214;SDS011;63849;47.546;19.254;2023-11-21T04:17:38;36.53;;;26.08;;
51214;SDS011;63849;47.546;19.254;2023-11-21T04:20:05;33.75;;;25.17;;
51214;SDS011;63849;47.546;19.254;2023-11-21T04:22:38;31.77;;;24.20;;
51214;SDS011;63849;47.546;19.254;2023-11-21T04:25:12;32.70;;;25.95;;
51214;SDS011;63849;47.546;19.254;2023-11-21T04:27:40;31.45;;;24.75;;
51214;SDS011;63849;47.546;19.254;2023-11-21T04:30:08;34.85;;;24.63;;
51214;SDS011;63849;47.546;19.254;2023-11-21T04:32:38;28.38;;;22.65;;
51214;SDS011;63849;47.546;19.254;2023-11-21T04:35:09;28.95;;;21.55;;
51214;SDS011;63849;47.546;19.254;2023-11-21T04:37:35;28.27;;;22.27;;
51214;SDS011;63849;47.546;19.254;2023-11-21T04:40:01;29.08;;;23.67;;
51214;SDS011;63849;47.546;19.254;2023-11-21T04:42:32;32.13;;;22.67;;
51214;SDS011;63849;47.546;19.254;2023-11-21T04:45:01;31.98;;;23.02;;
51214;SDS011;63849;47.546;19.254;2023-11-21T04:47:30;35.67;;;24.42;;
51214;SDS011;63849;47.546;19.254;2023-11-21T04:49:55;33.85;;;24.90;;
51214;SDS011;63849;47.546;19.254;2023-11-21T04:52:21;34.88;;;24.17;;
51214;SDS011;63849;47.546;19.254;2023-11-21T04:54:47;30.20;;;23.65;;
51214;SDS011;63849;47.546;19.254;2023-11-21T04:57:13;35.42;;;24.30;;
51214;SDS011;63849;47.546;19.254;2023-11-21T04:59:39;31.05;;;23.17;;
51214;SDS011;63849;47.546;19.254;2023-11-21T05:02:04;32.45;;;24.52;;
51214;SDS011;63849;47.546;19.254;2023-11-21T05:04:30;38.55;;;23.90;;
51214;SDS011;63849;47.546;19.254;2023-11-21T05:06:56;34.15;;;23.75;;
51214;SDS011;63849;47.546;19.254;2023-11-21T05:09:22;31.48;;;22.80;;
51214;SDS011;63849;47.546;19.254;2023-11-21T05:11:47;33.35;;;23.58;;
51214;SDS011;63849;47.546;19.254;2023-11-21T05:14:13;28.17;;;23.38;;
51214;SDS011;63849;47.546;19.254;2023-11-21T05:16:39;30.25;;;22.40;;
51214;SDS011;63849;47.546;19.254;2023-11-21T05:19:04;29.88;;;22.42;;
51214;SDS011;63849;47.546;19.254;2023-11-21T05:21:31;28.70;;;22.20;;
51214;SDS011;63849;47.546;19.254;2023-11-21T05:23:57;34.40;;;23.45;;
51214;SDS011;63849;47.546;19.254;2023-11-21T05:26:23;27.88;;;22.98;;
51214;SDS011;63849;47.546;19.254;2023-11-21T05:28:49;33.00;;;23.80;;
51214;SDS011;63849;47.546;19.254;2023-11-21T05:31:15;27.55;;;21.70;;
51214;SDS011;63849;47.546;19.254;2023-11-21T05:33:41;32.75;;;23.30;;
51214;SDS011;63849;47.546;19.254;2023-11-21T05:36:07;31.55;;;21.55;;
51214;SDS011;63849;47.546;19.254;2023-11-21T05:38:33;25.90;;;17.60;;
51214;SDS011;63849;47.546;19.254;2023-11-21T05:41:01;20.48;;;15.80;;
51214;SDS011;63849;47.546;19.254;2023-11-21T05:43:28;17.75;;;15.40;;
51214;SDS011;63849;47.546;19.254;2023-11-21T05:45:56;21.67;;;15.88;;
51214;SDS011;63849;47.546;19.254;2023-11-21T05:48:21;21.10;;;15.80;;
51214;SDS011;63849;47.546;19.254;2023-11-21T05:50:48;18.67;;;15.32;;
51214;SDS011;63849;47.546;19.254;2023-11-21T05:53:15;28.73;;;17.55;;
51214;SDS011;63849;47.546;19.254;2023-11-21T05:55:41;30.38;;;17.77;;
51214;SDS011;63849;47.546;19.254;2023-11-21T05:58:07;23.92;;;16.05;;
51214;SDS011;63849;47.546;19.254;2023-11-21T06:00:33;25.40;;;16.52;;
51214;SDS011;63849;47.546;19.254;2023-11-21T06:02:59;22.25;;;17.48;;
51214;SDS011;63849;47.546;19.254;2023-11-21T06:05:26;23.00;;;16.45;;
51214;SDS011;63849;47.546;19.254;2023-11-21T06:07:52;24.75;;;17.40;;
51214;SDS011;63849;47.546;19.254;2023-11-21T06:10:20;22.40;;;17.05;;
51214;SDS011;63849;47.546;19.254;2023-11-21T06:12:46;25.88;;;17.77;;
51214;SDS011;63849;47.546;19.254;2023-11-21T06:15:12;24.10;;;17.45;;
51214;SDS011;63849;47.546;19.254;2023-11-21T06:17:41;24.98;;;18.25;;
51214;SDS011;63849;47.546;19.254;2023-11-21T06:20:09;26.48;;;19.52;;
51214;SDS011;63849;47.546;19.254;2023-11-21T06:22:40;23.73;;;17.30;;
51214;SDS011;63849;47.546;19.254;2023-11-21T06:25:07;21.42;;;16.73;;
51214;SDS011;63849;47.546;19.254;2023-11-21T06:27:34;24.73;;;16.98;;
51214;SDS011;63849;47.546;19.254;2023-11-21T06:30:03;23.90;;;17.00;;
51214;SDS011;63849;47.546;19.254;2023-11-21T06:32:29;26.88;;;17.98;;
51214;SDS011;63849;47.546;19.254;2023-11-21T06:34:56;24.77;;;18.02;;
51214;SDS011;63849;47.546;19.254;2023-11-21T06:37:24;31.27;;;19.40;;
51214;SDS011;63849;47.546;19.254;2023-11-21T06:39:51;29.13;;;18.58;;
51214;SDS011;63849;47.546;19.254;2023-11-21T06:42:18;28.27;;;20.13;;
51214;SDS011;63849;47.546;19.254;2023-11-21T06:44:46;22.90;;;19.05;;
51214;SDS011;63849;47.546;19.254;2023-11-21T06:47:13;30.48;;;22.33;;
51214;SDS011;63849;47.546;19.254;2023-11-21T06:49:39;26.40;;;20.48;;
51214;SDS011;63849;47.546;19.254;2023-11-21T06:52:06;28.65;;;19.55;;
51214;SDS011;63849;47.546;19.254;2023-11-21T06:54:33;29.58;;;20.25;;
51214;SDS011;63849;47.546;19.254;2023-11-21T06:56:59;32.10;;;21.15;;
51214;SDS011;63849;47.546;19.254;2023-11-21T06:59:28;25.98;;;20.05;;
51214;SDS011;63849;47.546;19.254;2023-11-21T07:01:54;25.48;;;18.75;;
51214;SDS011;63849;47.546;19.254;2023-11-21T07:04:19;28.58;;;19.80;;
51214;SDS011;63849;47.546;19.254;2023-11-21T07:06:45;25.73;;;19.88;;
51214;SDS011;63849;47.546;19.254;2023-11-21T07:09:11;28.48;;;19.10;;
51214;SDS011;63849;47.546;19.254;2023-11-21T07:11:38;24.15;;;19.27;;
51214;SDS011;63849;47.546;19.254;2023-11-21T07:14:04;25.23;;;19.65;;
51214;SDS011;63849;47.546;19.254;2023-11-21T07:16:36;29.90;;;20.90;;
51214;SDS011;63849;47.546;19.254;2023-11-21T07:19:03;28.45;;;19.73;;
51214;SDS011;63849;47.546;19.254;2023-11-21T07:21:31;29.02;;;19.63;;
51214;SDS011;63849;47.546;19.254;2023-11-21T07:23:58;25.25;;;19.23;;
51214;SDS011;63849;47.546;19.254;2023-11-21T07:26:26;24.58;;;19.08;;
51214;SDS011;63849;47.546;19.254;2023-11-21T07:28:52;27.02;;;20.17;;
51214;SDS011;63849;47.546;19.254;2023-11-21T07:31:18;23.42;;;18.48;;
51214;SDS011;63849;47.546;19.254;2023-11-21T07:33:44;30.75;;;19.23;;
51214;SDS011;63849;47.546;19.254;2023-11-21T07:36:12;24.52;;;18.67;;
51214;SDS011;63849;47.546;19.254;2023-11-21T07:38:39;26.15;;;18.83;;
51214;SDS011;63849;47.546;19.254;2023-11-21T07:41:05;26.20;;;20.27;;
51214;SDS011;63849;47.546;19.254;2023-11-21T07:43:33;35.28;;;25.77;;
51214;SDS011;63849;47.546;19.254;2023-11-21T07:46:02;43.88;;;29.13;;
51214;SDS011;63849;47.546;19.254;2023-11-21T07:48:29;45.83;;;32.28;;
51214;SDS011;63849;47.546;19.254;2023-11-21T07:50:55;50.53;;;33.03;;
51214;SDS011;63849;47.546;19.254;2023-11-21T07:53:21;51.05;;;35.00;;
51214;SDS011;63849;47.546;19.254;2023-11-21T07:55:47;54.80;;;39.13;;
51214;SDS011;63849;47.546;19.254;2023-11-21T07:58:12;65.25;;;41.63;;
51214;SDS011;63849;47.546;19.254;2023-11-21T08:00:38;60.63;;;40.47;;
51214;SDS011;63849;47.546;19.254;2023-11-21T08:03:04;60.63;;;41.83;;
51214;SDS011;63849;47.546;19.254;2023-11-21T08:05:33;64.13;;;44.33;;
51214;SDS011;63849;47.546;19.254;2023-11-21T08:07:59;67.95;;;46.08;;
51214;SDS011;63849;47.546;19.254;2023-11-21T08:10:25;60.13;;;42.80;;
51214;SDS011;63849;47.546;19.254;2023-11-21T08:12:51;49.35;;;37.28;;
51214;SDS011;63849;47.546;19.254;2023-11-21T08:15:18;40.97;;;31.30;;
51214;SDS011;63849;47.546;19.254;2023-11-21T08:17:45;42.38;;;29.45;;
51214;SDS011;63849;47.546;19.254;2023-11-21T08:20:12;41.33;;;24.67;;
51214;SDS011;63849;47.546;19.254;2023-11-21T08:22:38;29.48;;;22.45;;
51214;SDS011;63849;47.546;19.254;2023-11-21T08:25:06;35.30;;;26.35;;
51214;SDS011;63849;47.546;19.254;2023-11-21T08:27:33;35.72;;;28.42;;
51214;SDS011;63849;47.546;19.254;2023-11-21T08:30:00;31.65;;;25.58;;
51214;SDS011;63849;47.546;19.254;2023-11-21T08:32:26;32.40;;;24.90;;
51214;SDS011;63849;47.546;19.254;2023-11-21T08:34:52;33.15;;;24.05;;
51214;SDS011;63849;47.546;19.254;2023-11-21T08:37:18;32.60;;;24.08;;
51214;SDS011;63849;47.546;19.254;2023-11-21T08:39:44;30.77;;;22.77;;
51214;SDS011;63849;47.546;19.254;2023-11-21T08:42:10;30.60;;;20.65;;
51214;SDS011;63849;47.546;19.254;2023-11-21T08:44:36;31.70;;;22.40;;
51214;SDS011;63849;47.546;19.254;2023-11-21T08:47:01;28.60;;;20.33;;
51214;SDS011;63849;47.546;19.254;2023-11-21T08:49:30;25.98;;;17.77;;
51214;SDS011;63849;47.546;19.254;2023-11-21T08:51:55;25.85;;;16.48;;
51214;SDS011;63849;47.546;19.254;2023-11-21T08:54:22;31.20;;;16.48;;
51214;SDS011;63849;47.546;19.254;2023-11-21T08:56:48;26.58;;;16.08;;
51214;SDS011;63849;47.546;19.254;2023-11-21T08:59:15;29.25;;;16.77;;
51214;SDS011;63849;47.546;19.254;2023-11-21T09:01:41;29.15;;;17.85;;
51214;SDS011;63849;47.546;19.254;2023-11-21T09:04:07;24.30;;;16.00;;
51214;SDS011;63849;47.546;19.254;2023-11-21T09:06:33;22.63;;;13.93;;
51214;SDS011;63849;47.546;19.254;2023-11-21T09:08:59;20.23;;;12.32;;
51214;SDS011;63849;47.546;19.254;2023-11-21T09:11:24;12.93;;;9.55;;
51214;SDS011;63849;47.546;19.254;2023-11-21T09:13:52;12.55;;;8.02;;
51214;SDS011;63849;47.546;19.254;2023-11-21T09:16:18;16.40;;;9.70;;
51214;SDS011;63849;47.546;19.254;2023-11-21T09:18:44;21.17;;;15.23;;
51214;SDS011;63849;47.546;19.254;2023-11-21T09:21:10;27.13;;;17.65;;
51214;SDS011;63849;47.546;19.254;2023-11-21T09:23:36;26.55;;;16.80;;
51214;SDS011;63849;47.546;19.254;2023-11-21T09:26:01;23.65;;;15.20;;
51214;SDS011;63849;47.546;19.254;2023-11-21T09:28:27;17.42;;;10.73;;
51214;SDS011;63849;47.546;19.254;2023-11-21T09:30:53;14.82;;;9.68;;
51214;SDS011;63849;47.546;19.254;2023-11-21T09:33:19;15.50;;;9.45;;
51214;SDS011;63849;47.546;19.254;2023-11-21T09:35:47;26.75;;;13.23;;
51214;SDS011;63849;47.546;19.254;2023-11-21T09:38:13;39.58;;;17.48;;
51214;SDS011;63849;47.546;19.254;2023-11-21T09:40:39;29.15;;;13.68;;
51214;SDS011;63849;47.546;19.254;2023-11-21T09:43:06;35.25;;;15.43;;
51214;SDS011;63849;47.546;19.254;2023-11-21T09:45:41;40.47;;;18.38;;
51214;SDS011;63849;47.546;19.254;2023-11-21T09:48:19;36.85;;;17.85;;
51214;SDS011;63849;47.546;19.254;2023-11-21T09:50:47;20.13;;;11.23;;
51214;SDS011;63849;47.546;19.254;2023-11-21T09:55:41;17.13;;;10.05;;
51214;SDS011;63849;47.546;19.254;2023-11-21T09:58:09;16.98;;;10.32;;
51214;SDS011;63849;47.546;19.254;2023-11-21T10:00:39;15.18;;;10.27;;
51214;SDS011;63849;47.546;19.254;2023-11-21T10:03:06;17.77;;;11.05;;
51214;SDS011;63849;47.546;19.254;2023-11-21T10:05:33;18.58;;;11.07;;
51214;SDS011;63849;47.546;19.254;2023-11-21T10:07:59;19.27;;;12.15;;
51214;SDS011;63849;47.546;19.254;2023-11-21T10:10:26;17.58;;;10.65;;
51214;SDS011;63849;47.546;19.254;2023-11-21T10:12:57;20.17;;;11.45;;
51214;SDS011;63849;47.546;19.254;2023-11-21T10:15:28;19.92;;;12.23;;
51214;SDS011;63849;47.546;19.254;2023-11-21T10:17:55;16.73;;;12.55;;
51214;SDS011;63849;47.546;19.254;2023-11-21T10:20:22;19.95;;;11.80;;
51214;SDS011;63849;47.546;19.254;2023-11-21T10:22:49;15.15;;;10.73;;
51214;SDS011;63849;47.546;19.254;2023-11-21T10:25:15;17.88;;;9.60;;
51214;SDS011;63849;47.546;19.254;2023-11-21T10:27:43;14.68;;;8.73;;
51214;SDS011;63849;47.546;19.254;2023-11-21T10:30:15;12.47;;;7.63;;
51214;SDS011;63849;47.546;19.254;2023-11-21T10:32:44;13.00;;;7.35;;
51214;SDS011;63849;47.546;19.254;2023-11-21T10:35:10;15.45;;;7.38;;
51214;SDS011;63849;47.546;19.254;2023-11-21T10:37:36;11.02;;;7.32;;
51214;SDS011;63849;47.546;19.254;2023-11-21T10:40:08;13.10;;;7.18;;
51214;SDS011;63849;47.546;19.254;2023-11-21T10:42:40;11.40;;;7.17;;
51214;SDS011;63849;47.546;19.254;2023-11-21T10:45:07;15.15;;;7.70;;
51214;SDS011;63849;47.546;19.254;2023-11-21T10:47:43;19.48;;;8.82;;
51214;SDS011;63849;47.546;19.254;2023-11-21T10:50:09;16.10;;;9.85;;
51214;SDS011;63849;47.546;19.254;2023-11-21T10:52:42;15.40;;;11.68;;
51214;SDS011;63849;47.546;19.254;2023-11-21T10:55:17;21.70;;;13.05;;
51214;SDS011;63849;47.546;19.254;2023-11-21T10:57:51;17.45;;;14.38;;
51214;SDS011;63849;47.546;19.254;2023-11-21T11:00:18;23.20;;;14.87;;
51214;SDS011;63849;47.546;19.254;2023-11-21T11:02:50;22.65;;;15.82;;
51214;SDS011;63849;47.546;19.254;2023-11-21T11:05:19;25.40;;;18.98;;
51214;SDS011;63849;47.546;19.254;2023-11-21T11:07:46;34.28;;;20.67;;
51214;SDS011;63849;47.546;19.254;2023-11-21T11:10:19;24.02;;;17.98;;
51214;SDS011;63849;47.546;19.254;2023-11-21T11:12:48;23.50;;;17.17;;
51214;SDS011;63849;47.546;19.254;2023-11-21T11:15:15;25.58;;;17.67;;
51214;SDS011;63849;47.546;19.254;2023-11-21T11:17:42;27.63;;;16.65;;
51214;SDS011;63849;47.546;19.254;2023-11-21T11:20:10;28.70;;;18.23;;
51214;SDS011;63849;47.546;19.254;2023-11-21T11:22:44;25.73;;;16.90;;
51214;SDS011;63849;47.546;19.254;2023-11-21T11:25:21;25.15;;;17.88;;
51214;SDS011;63849;47.546;19.254;2023-11-21T11:28:03;20.70;;;16.50;;
51214;SDS011;63849;47.546;19.254;2023-11-21T11:33:34;29.73;;;18.58;;
51214;SDS011;63849;47.546;19.254;2023-11-21T11:36:22;27.70;;;19.10;;
51214;SDS011;63849;47.546;19.254;2023-11-21T11:38:59;29.23;;;19.20;;
51214;SDS011;63849;47.546;19.254;2023-11-21T11:41:27;30.67;;;21.08;;
51214;SDS011;63849;47.546;19.254;2023-11-21T11:43:58;30.40;;;21.27;;
51214;SDS011;63849;47.546;19.254;2023-11-21T11:46:43;26.90;;;20.60;;
51214;SDS011;63849;47.546;19.254;2023-11-21T11:49:27;27.25;;;19.80;;
51214;SDS011;63849;47.546;19.254;2023-11-21T11:54:56;30.48;;;20.60;;
51214;SDS011;63849;47.546;19.254;2023-11-21T11:57:26;31.35;;;20.27;;
51214;SDS011;63849;47.546;19.254;2023-11-21T12:02:40;28.23;;;19.93;;
51214;SDS011;63849;47.546;19.254;2023-11-21T12:05:13;29.48;;;19.70;;
51214;SDS011;63849;47.546;19.254;2023-11-21T12:07:47;26.35;;;17.92;;
51214;SDS011;63849;47.546;19.254;2023-11-21T12:10:15;33.33;;;19.23;;
51214;SDS011;63849;47.546;19.254;2023-11-21T12:12:47;25.92;;;17.55;;
51214;SDS011;63849;47.546;19.254;2023-11-21T12:15:20;25.80;;;17.70;;
51214;SDS011;63849;47.546;19.254;2023-11-21T12:17:47;29.48;;;18.92;;
51214;SDS011;63849;47.546;19.254;2023-11-21T12:20:14;30.85;;;18.95;;
51214;SDS011;63849;47.546;19.254;2023-11-21T12:22:45;23.73;;;18.15;;
51214;SDS011;63849;47.546;19.254;2023-11-21T12:25:15;24.13;;;17.08;;
51214;SDS011;63849;47.546;19.254;2023-11-21T12:27:48;24.33;;;17.05;;
51214;SDS011;63849;47.546;19.254;2023-11-21T12:30:15;20.58;;;15.80;;
51214;SDS011;63849;47.546;19.254;2023-11-21T12:32:48;20.63;;;15.93;;
51214;SDS011;63849;47.546;19.254;2023-11-21T12:35:18;23.98;;;16.02;;
51214;SDS011;63849;47.546;19.254;2023-11-21T12:37:44;22.33;;;15.45;;
51214;SDS011;63849;47.546;19.254;2023-11-21T12:40:12;23.33;;;15.30;;
51214;SDS011;63849;47.546;19.254;2023-11-21T12:42:40;21.17;;;14.63;;
51214;SDS011;63849;47.546;19.254;2023-11-21T12:45:18;22.13;;;15.00;;
51214;SDS011;63849;47.546;19.254;2023-11-21T12:47:46;18.30;;;13.65;;
51214;SDS011;63849;47.546;19.254;2023-11-21T12:50:22;15.90;;;13.05;;
51214;SDS011;63849;47.546;19.254;2023-11-21T12:52:49;23.25;;;13.77;;
51214;SDS011;63849;47.546;19.254;2023-11-21T12:55:19;21.25;;;13.65;;
51214;SDS011;63849;47.546;19.254;2023-11-21T12:57:52;30.10;;;15.18;;
51214;SDS011;63849;47.546;19.254;2023-11-21T13:00:20;19.25;;;13.25;;
51214;SDS011;63849;47.546;19.254;2023-11-21T13:02:56;21.75;;;13.85;;
51214;SDS011;63849;47.546;19.254;2023-11-21T13:05:41;19.13;;;13.75;;
51214;SDS011;63849;47.546;19.254;2023-11-21T13:08:09;18.10;;;12.32;;
51214;SDS011;63849;47.546;19.254;2023-11-21T13:10:43;19.88;;;13.10;;
51214;SDS011;63849;47.546;19.254;2023-11-21T13:13:12;18.02;;;13.25;;
51214;SDS011;63849;47.546;19.254;2023-11-21T13:15:49;21.05;;;12.93;;
51214;SDS011;63849;47.546;19.254;2023-11-21T13:18:16;18.05;;;12.30;;
51214;SDS011;63849;47.546;19.254;2023-11-21T13:20:42;16.23;;;12.52;;
51214;SDS011;63849;47.546;19.254;2023-11-21T13:23:09;22.90;;;13.90;;
51214;SDS011;63849;47.546;19.254;2023-11-21T13:25:39;21.17;;;13.90;;
51214;SDS011;63849;47.546;19.254;2023-11-21T13:30:36;20.33;;;14.02;;
51214;SDS011;63849;47.546;19.254;2023-11-21T13:33:02;25.85;;;15.23;;
51214;SDS011;63849;47.546;19.254;2023-11-21T13:35:32;20.92;;;14.63;;
51214;SDS011;63849;47.546;19.254;2023-11-21T13:38:07;26.13;;;16.30;;
51214;SDS011;63849;47.546;19.254;2023-11-21T13:40:36;24.10;;;16.27;;
51214;SDS011;63849;47.546;19.254;2023-11-21T13:43:11;29.48;;;16.85;;
51214;SDS011;63849;47.546;19.254;2023-11-21T13:45:42;20.23;;;16.30;;
51214;SDS011;63849;47.546;19.254;2023-11-21T13:48:09;24.70;;;16.83;;
51214;SDS011;63849;47.546;19.254;2023-11-21T13:50:36;25.25;;;15.93;;
51214;SDS011;63849;47.546;19.254;2023-11-21T13:53:02;23.65;;;16.42;;
51214;SDS011;63849;47.546;19.254;2023-11-21T13:55:48;25.00;;;15.88;;
51214;SDS011;63849;47.546;19.254;2023-11-21T13:58:22;21.45;;;15.70;;
51214;SDS011;63849;47.546;19.254;2023-11-21T14:01:00;22.05;;;16.33;;
51214;SDS011;63849;47.546;19.254;2023-11-21T14:03:26;22.70;;;16.25;;
51214;SDS011;63849;47.546;19.254;2023-11-21T14:06:04;22.85;;;17.00;;
51214;SDS011;63849;47.546;19.254;2023-11-21T14:08:39;21.42;;;16.17;;
51214;SDS011;63849;47.546;19.254;2023-11-21T14:11:06;23.63;;;16.15;;
51214;SDS011;63849;47.546;19.254;2023-11-21T14:13:32;25.88;;;16.20;;
51214;SDS011;63849;47.546;19.254;2023-11-21T14:15:58;25.30;;;16.08;;
51214;SDS011;63849;47.546;19.254;2023-11-21T14:18:26;24.88;;;15.85;;
51214;SDS011;63849;47.546;19.254;2023-11-21T14:20:59;28.27;;;18.48;;
51214;SDS011;63849;47.546;19.254;2023-11-21T14:23:25;45.25;;;26.70;;
51214;SDS011;63849;47.546;19.254;2023-11-21T14:25:50;50.42;;;34.45;;